Time,TemperatureF,DewpointF,PressureIn,WindDirection,WindDirectionDegrees,WindSpeedMPH,WindSpeedGustMPH,Humidity,HourlyPrecipIn,Conditions,Clouds,dailyrainin,SoftwareType,DateUTC
2013-01-03 00:00:00,18.1,14.3,30.28,ENE,75,2.0,8.0,85,0.00,RMK !SN!,RMK !SN!,0.00,WUHU216DAVISVP2,2013-01-03 05:00:00,
2013-01-03 00:01:00,18.1,14.3,30.28,East,80,2.0,7.0,85,0.00,RMK !SN!,RMK !SN!,0.00,WUHU216DAVISVP2,2013-01-03 05:01:00,
2013-01-03 00:03:00,18.1,14.3,30.28,East,89,0.0,7.0,85,0.00,RMK !SN!,RMK !SN!,0.00,WUHU216DAVISVP2,2013-01-03 05:03:00,
2013-01-03 00:08:00,18.1,14.1,30.28,East,84,1.0,7.0,84,0.00,RMK !SN!,RMK !SN!,0.00,WUHU216DAVISVP2,2013-01-03 05:08:00,
2013-01-03 00:13:00,18.1,14.3,30.28,East,91,1.0,6.0,85,0.00,RMK !SN!,RMK !SN!,0.00,WUHU216DAVISVP2,2013-01-03 05:13:00,
2013-01-03 00:18:00,18.1,14.3,30.28,NW,324,3.0,4.0,85,0.00,RMK !SN!,RMK !SN!,0.00,WUHU216DAVISVP2,2013-01-03 05:18:00,
2013-01-03 00:23:00,18.1,14.3,30.27,East,93,1.0,4.0,85,0.00,RMK !SN!,RMK !SN!,0.00,WUHU216DAVISVP2,2013-01-03 05:23:00,
2013-01-03 00:28:00,18.0,14.2,30.28,ESE,105,0.0,4.0,85,0.00,RMK !SN!,RMK !SN!,0.00,WUHU216DAVISVP2,2013-01-03 05:28:00,
2013-01-03 00:33:00,17.9,14.1,30.28,East,93,0.0,3.0,85,0.00,RMK !SN!,RMK !SN!,0.00,WUHU216DAVISVP2,2013-01-03 05:33:00,
2013-01-03 00:38:00,17.8,14.0,30.27,ENE,58,2.0,2.0,85,0.00,RMK !SN!,RMK !SN!,0.00,WUHU216DAVISVP2,2013-01-03 05:38:00,
2013-01-03 00:43:00,17.7,13.9,30.27,NNE,26,1.0,3.0,85,0.00,RMK !SN!,RMK !SN!,0.00,WUHU216DAVISVP2,2013-01-03 05:43:00,
2013-01-03 00:48:00,17.5,13.8,30.28,North,5,1.0,3.0,85,0.00,RMK !SN!,RMK !SN!,0.00,WUHU216DAVISVP2,2013-01-03 05:48:00,
2013-01-03 00:53:00,17.0,13.0,30.27,NNW,335,3.0,5.0,84,0.00,RMK !SN!,RMK !SN!,0.00,WUHU216DAVISVP2,2013-01-03 05:53:00,
2013-01-03 00:58:00,16.6,12.6,30.27,NNW,330,0.0,5.0,84,0.00,RMK !SN!,RMK !SN!,0.00,WUHU216DAVISVP2,2013-01-03 05:58:00,
2013-01-03 01:03:00,16.3,12.6,30.28,NNE,18,3.0,5.0,85,0.00,RMK !SN!,RMK !SN!,0.00,WUHU216DAVISVP2,2013-01-03 06:03:00,
2013-01-03 01:08:00,16.0,12.3,30.28,ENE,78,0.0,5.0,85,0.00,RMK !SN!,RMK !SN!,0.00,WUHU216DAVISVP2,2013-01-03 06:08:00,
2013-01-03 01:13:00,15.8,12.1,30.28,NE,41,1.0,4.0,85,0.00,RMK !SN!,RMK !SN!,0.00,WUHU216DAVISVP2,2013-01-03 06:13:00,
2013-01-03 01:18:00,15.5,12.0,30.27,ENE,57,0.0,4.0,86,0.00,RMK !SN!,RMK !SN!,0.00,WUHU216DAVISVP2,2013-01-03 06:18:00,
2013-01-03 01:23:00,15.2,11.7,30.27,NE,53,2.0,4.0,86,0.00,RMK !SN!,RMK !SN!,0.00,WUHU216DAVISVP2,2013-01-03 06:23:00,
2013-01-03 01:28:00,14.8,11.3,30.27,ENE,69,1.0,3.0,86,0.00,RMK !SN!,RMK !SN!,0.00,WUHU216DAVISVP2,2013-01-03 06:28:00,
2013-01-03 01:33:00,14.6,11.1,30.28,ENE,72,1.0,3.0,86,0.00,RMK !SN!,RMK !SN!,0.00,WUHU216DAVISVP2,2013-01-03 06:33:00,
2013-01-03 01:38:00,14.4,11.2,30.28,NNE,12,1.0,3.0,87,0.00,RMK !SN!,RMK !SN!,0.00,WUHU216DAVISVP2,2013-01-03 06:38:00,
2013-01-03 01:43:00,14.3,11.1,30.28,NNE,18,0.0,3.0,87,0.00,RMK !SN!,RMK !SN!,0.00,WUHU216DAVISVP2,2013-01-03 06:43:00,
2013-01-03 01:48:00,14.1,10.9,30.28,East,83,0.0,2.0,87,0.00,RMK !SN!,RMK !SN!,0.00,WUHU216DAVISVP2,2013-01-03 06:48:00,
2013-01-03 01:53:00,14.0,11.1,30.28,NE,43,2.0,2.0,88,0.00,RMK !SN!,RMK !SN!,0.00,WUHU216DAVISVP2,2013-01-03 06:53:00,
2013-01-03 01:58:00,13.8,10.9,30.28,NE,44,0.0,2.0,88,0.00,RMK !SN!,RMK !SN!,0.00,WUHU216DAVISVP2,2013-01-03 06:58:00,
2013-01-03 02:03:00,13.7,10.8,30.28,NE,44,0.0,2.0,88,0.00,RMK !SN!,RMK !SN!,0.00,WUHU216DAVISVP2,2013-01-03 07:03:00,
2013-01-03 02:08:00,13.5,10.6,30.28,NE,44,0.0,2.0,88,0.00,RMK !SN!,RMK !SN!,0.00,WUHU216DAVISVP2,2013-01-03 07:08:00,
2013-01-03 02:13:00,13.3,10.4,30.28,NE,44,0.0,1.0,88,0.00,RMK !SN!,RMK !SN!,0.00,WUHU216DAVISVP2,2013-01-03 07:13:00,
2013-01-03 02:18:00,13.1,10.4,30.28,NE,44,0.0,1.0,89,0.00,RMK !SN!,RMK !SN!,0.00,WUHU216DAVISVP2,2013-01-03 07:18:00,
2013-01-03 02:23:00,12.9,10.2,30.29,ENE,65,0.0,1.0,89,0.00,RMK !SN!,RMK !SN!,0.00,WUHU216DAVISVP2,2013-01-03 07:23:00,
2013-01-03 02:28:00,12.7,10.0,30.29,ENE,65,1.0,1.0,89,0.00,RMK !SN!,RMK !SN!,0.00,WUHU216DAVISVP2,2013-01-03 07:28:00,
2013-01-03 02:33:00,12.6,9.9,30.29,NNE,33,0.0,2.0,89,0.00,RMK !SN!,RMK !SN!,0.00,WUHU216DAVISVP2,2013-01-03 07:33:00,
2013-01-03 02:38:00,12.5,9.8,30.28,NNE,33,0.0,2.0,89,0.00,RMK !SN!,RMK !SN!,0.00,WUHU216DAVISVP2,2013-01-03 07:38:00,
2013-01-03 02:43:00,12.4,10.0,30.27,NNE,33,0.0,2.0,90,0.00,RMK !SN!,RMK !SN!,0.00,WUHU216DAVISVP2,2013-01-03 07:43:00,
2013-01-03 02:48:00,12.2,9.8,30.27,ENE,67,0.0,2.0,90,0.00,RMK !SN!,RMK !SN!,0.00,WUHU216DAVISVP2,2013-01-03 07:48:00,
2013-01-03 02:53:00,12.2,9.8,30.27,ENE,67,0.0,2.0,90,0.00,RMK !SN!,RMK !SN!,0.00,WUHU216DAVISVP2,2013-01-03 07:53:00,
2013-01-03 02:58:00,12.1,9.7,30.28,ENE,67,0.0,1.0,90,0.00,RMK !SN!,RMK !SN!,0.00,WUHU216DAVISVP2,2013-01-03 07:58:00,
2013-01-03 03:03:00,12.1,9.7,30.28,ENE,60,0.0,2.0,90,0.00,RMK !SN!,RMK !SN!,0.00,WUHU216DAVISVP2,2013-01-03 08:03:00,
2013-01-03 03:08:00,12.1,9.7,30.28,WNW,297,0.0,2.0,90,0.00,RMK !SN!,RMK !SN!,0.00,WUHU216DAVISVP2,2013-01-03 08:08:00,
2013-01-03 03:13:00,11.5,8.8,30.28,NE,45,0.0,2.0,89,0.00,RMK !SN!,RMK !SN!,0.00,WUHU216DAVISVP2,2013-01-03 08:13:00,
2013-01-03 03:18:00,11.5,8.8,30.28,NE,45,0.0,2.0,89,0.00,RMK !SN!,RMK !SN!,0.00,WUHU216DAVISVP2,2013-01-03 08:18:00,
2013-01-03 08:36:00,12.9,9.0,30.23,ENE,58,1.0,6.0,84,0.00,RMK !SN!,RMK !SN!,0.00,WUHU216DAVISVP2,2013-01-03 13:36:00,
2013-01-03 08:41:00,13.2,9.0,30.23,NE,49,1.0,6.0,83,0.00,RMK !SN!,RMK !SN!,0.00,WUHU216DAVISVP2,2013-01-03 13:41:00,
2013-01-03 08:46:00,13.6,9.4,30.24,NNW,335,1.0,7.0,83,0.00,RMK !SN!,RMK !SN!,0.00,WUHU216DAVISVP2,2013-01-03 13:46:00,
2013-01-03 08:51:00,14.0,9.2,30.24,NW,319,1.0,7.0,81,0.00,RMK !SN!,RMK !SN!,0.00,WUHU216DAVISVP2,2013-01-03 13:51:00,
2013-01-03 08:56:00,14.2,9.2,30.24,WNW,285,1.0,7.0,80,0.00,RMK !SN!,RMK !SN!,0.00,WUHU216DAVISVP2,2013-01-03 13:56:00,
2013-01-03 09:01:00,14.5,9.5,30.23,ESE,113,0.0,7.0,80,0.00,RMK !SN!,RMK !SN!,0.00,WUHU216DAVISVP2,2013-01-03 14:01:00,
2013-01-03 09:06:00,14.7,9.6,30.24,North,360,3.0,8.0,80,0.00,RMK !SN!,RMK !SN!,0.00,WUHU216DAVISVP2,2013-01-03 14:06:00,
2013-01-03 09:11:00,15.0,9.7,30.23,NNW,330,3.0,8.0,79,0.00,RMK !SN!,RMK !SN!,0.00,WUHU216DAVISVP2,2013-01-03 14:11:00,
2013-01-03 09:16:00,15.3,10.0,30.23,NW,323,3.0,8.0,79,0.00,RMK !SN!,RMK !SN!,0.00,WUHU216DAVISVP2,2013-01-03 14:16:00,
2013-01-03 09:21:00,15.7,10.3,30.23,NNE,27,3.0,7.0,79,0.00,RMK !SN!,RMK !SN!,0.00,WUHU216DAVISVP2,2013-01-03 14:21:00,
2013-01-03 09:26:00,16.0,10.6,30.23,North,4,5.0,7.0,79,0.00,RMK !SN!,RMK !SN!,0.00,WUHU216DAVISVP2,2013-01-03 14:26:00,
2013-01-03 09:31:00,16.3,10.9,30.23,West,260,0.0,7.0,79,0.00,RMK !SN!,RMK !SN!,0.00,WUHU216DAVISVP2,2013-01-03 14:31:00,
2013-01-03 09:36:00,16.7,11.3,30.23,North,353,4.0,6.0,79,0.00,RMK !SN!,RMK !SN!,0.00,WUHU216DAVISVP2,2013-01-03 14:36:00,
2013-01-03 09:41:00,17.0,11.3,30.23,ENE,70,1.0,6.0,78,0.00,RMK !SN!,RMK !SN!,0.00,WUHU216DAVISVP2,2013-01-03 14:41:00,
2013-01-03 09:47:00,17.4,11.7,30.23,NW,324,4.0,8.0,78,0.00,RMK !SN!,RMK !SN!,0.00,WUHU216DAVISVP2,2013-01-03 14:47:00,
2013-01-03 09:52:00,17.8,12.1,30.23,NNE,28,2.0,8.0,78,0.00,RMK !SN!,RMK !SN!,0.00,WUHU216DAVISVP2,2013-01-03 14:52:00,
2013-01-03 09:57:00,18.2,12.2,30.23,NNE,14,2.0,8.0,77,0.00,RMK !SN!,RMK !SN!,0.00,WUHU216DAVISVP2,2013-01-03 14:57:00,
2013-01-03 10:02:00,18.5,12.5,30.23,ENE,71,3.0,8.0,77,0.00,RMK !SN!,RMK !SN!,0.00,WUHU216DAVISVP2,2013-01-03 15:02:00,
2013-01-03 10:07:00,18.7,12.4,30.23,NNE,23,5.0,8.0,76,0.00,RMK !SN!,RMK !SN!,0.00,WUHU216DAVISVP2,2013-01-03 15:07:00,
2013-01-03 10:12:00,19.0,13.0,30.23,NE,34,2.0,8.0,77,0.00,RMK !SN!,RMK !SN!,0.00,WUHU216DAVISVP2,2013-01-03 15:12:00,
2013-01-03 10:17:00,19.4,13.4,30.23,WNW,293,2.0,8.0,77,0.00,RMK !SN!,RMK !SN!,0.00,WUHU216DAVISVP2,2013-01-03 15:17:00,
2013-01-03 10:22:00,19.7,13.7,30.23,NNW,342,2.0,8.0,77,0.00,RMK !SN!,RMK !SN!,0.00,WUHU216DAVISVP2,2013-01-03 15:22:00,
2013-01-03 10:27:00,19.9,13.6,30.23,NNE,32,1.0,7.0,76,0.00,RMK !SN!,RMK !SN!,0.00,WUHU216DAVISVP2,2013-01-03 15:27:00,
2013-01-03 10:32:00,20.2,13.5,30.23,NE,39,2.0,6.0,75,0.00,RMK !SN!,RMK !SN!,0.00,WUHU216DAVISVP2,2013-01-03 15:32:00,
2013-01-03 10:37:00,20.5,13.9,30.23,NE,38,2.0,6.0,75,0.00,RMK !SN!,RMK !SN!,0.00,WUHU216DAVISVP2,2013-01-03 15:37:00,
2013-01-03 10:42:00,20.9,14.0,30.23,NNE,33,2.0,9.0,74,0.00,RMK !SN!,RMK !SN!,0.00,WUHU216DAVISVP2,2013-01-03 15:42:00,
2013-01-03 10:47:00,21.1,13.8,30.23,ENE,76,0.0,9.0,73,0.00,RMK !SN!,RMK !SN!,0.00,WUHU216DAVISVP2,2013-01-03 15:47:00,
2013-01-03 10:52:00,21.3,14.0,30.23,NNE,28,2.0,9.0,73,0.00,RMK !SN!,RMK !SN!,0.00,WUHU216DAVISVP2,2013-01-03 15:52:00,
2013-01-03 10:57:00,21.6,14.0,30.23,ENE,77,1.0,9.0,72,0.00,RMK !SN!,RMK !SN!,0.00,WUHU216DAVISVP2,2013-01-03 15:57:00,
2013-01-03 11:02:00,21.8,14.5,30.22,ENE,66,1.0,7.0,73,0.00,RMK !SN!,RMK !SN!,0.00,WUHU216DAVISVP2,2013-01-03 16:02:00,
2013-01-03 11:07:00,22.0,14.4,30.22,NW,308,1.0,8.0,72,0.00,RMK !SN!,RMK !SN!,0.00,WUHU216DAVISVP2,2013-01-03 16:07:00,
2013-01-03 11:12:00,22.1,14.4,30.22,NNW,344,4.0,8.0,72,0.00,RMK !SN!,RMK !SN!,0.00,WUHU216DAVISVP2,2013-01-03 16:12:00,
2013-01-03 11:17:00,22.3,14.7,30.22,East,94,1.0,8.0,72,0.00,RMK !SN!,RMK !SN!,0.00,WUHU216DAVISVP2,2013-01-03 16:17:00,
2013-01-03 11:22:00,22.5,14.8,30.22,North,9,4.0,8.0,72,0.00,RMK !SN!,RMK !SN!,0.00,WUHU216DAVISVP2,2013-01-03 16:22:00,
2013-01-03 11:27:00,22.9,15.6,30.22,East,84,2.0,8.0,73,0.00,RMK !SN!,RMK !SN!,0.00,WUHU216DAVISVP2,2013-01-03 16:27:00,
2013-01-03 11:32:00,23.3,15.7,30.22,NE,53,3.0,8.0,72,0.00,RMK !SN!,RMK !SN!,0.00,WUHU216DAVISVP2,2013-01-03 16:32:00,
2013-01-03 11:37:00,23.5,15.5,30.22,East,93,2.0,8.0,71,0.00,RMK !SN!,RMK !SN!,0.00,WUHU216DAVISVP2,2013-01-03 16:37:00,
2013-01-03 11:42:00,23.8,15.8,30.22,East,97,2.0,8.0,71,0.00,RMK !SN!,RMK !SN!,0.00,WUHU216DAVISVP2,2013-01-03 16:42:00,
2013-01-03 11:47:00,24.1,16.1,30.21,East,92,2.0,8.0,71,0.00,RMK !SN!,RMK !SN!,0.00,WUHU216DAVISVP2,2013-01-03 16:47:00,
2013-01-03 11:52:00,24.4,16.1,30.21,ESE,110,3.0,5.0,70,0.00,RMK !SN!,RMK !SN!,0.00,WUHU216DAVISVP2,2013-01-03 16:52:00,
2013-01-03 11:57:00,24.7,16.4,30.21,ENE,77,6.0,6.0,70,0.00,RMK !SN!,RMK !SN!,0.00,WUHU216DAVISVP2,2013-01-03 16:57:00,
2013-01-03 12:02:00,25.0,16.6,30.21,ENE,77,5.0,6.0,70,0.00,RMK !SN!,RMK !SN!,0.00,WUHU216DAVISVP2,2013-01-03 17:02:00,
2013-01-03 12:07:00,25.3,16.6,30.20,East,89,1.0,8.0,69,0.00,RMK !SN!,RMK !SN!,0.00,WUHU216DAVISVP2,2013-01-03 17:07:00,
2013-01-03 12:12:00,25.6,17.2,30.20,North,9,4.0,10.0,70,0.00,RMK !SN!,RMK !SN!,0.00,WUHU216DAVISVP2,2013-01-03 17:12:00,
2013-01-03 12:17:00,25.9,17.5,30.20,ENE,70,3.0,10.0,70,0.00,RMK !SN!,RMK !SN!,0.00,WUHU216DAVISVP2,2013-01-03 17:17:00,
2013-01-03 12:22:00,26.2,17.5,30.20,NNE,32,2.0,10.0,69,0.00,RMK !SN!,RMK !SN!,0.00,WUHU216DAVISVP2,2013-01-03 17:22:00,
2013-01-03 12:27:00,26.2,17.1,30.19,NE,39,2.0,12.0,68,0.00,RMK !SN!,RMK !SN!,0.00,WUHU216DAVISVP2,2013-01-03 17:27:00,
2013-01-03 12:32:00,26.2,17.5,30.19,NE,49,8.0,12.0,69,0.00,RMK !SN!,RMK !SN!,0.00,WUHU216DAVISVP2,2013-01-03 17:32:00,
2013-01-03 12:37:00,26.2,17.5,30.19,East,94,2.0,12.0,69,0.00,RMK !SN!,RMK !SN!,0.00,WUHU216DAVISVP2,2013-01-03 17:37:00,
2013-01-03 12:42:00,26.2,17.1,30.18,East,96,1.0,12.0,68,0.00,RMK !SN!,RMK !SN!,0.00,WUHU216DAVISVP2,2013-01-03 17:42:00,
2013-01-03 12:47:00,26.3,17.5,30.18,ENE,73,5.0,11.0,69,0.00,RMK !SN!,RMK !SN!,0.00,WUHU216DAVISVP2,2013-01-03 17:47:00,
2013-01-03 12:52:00,26.5,17.8,30.18,NE,55,4.0,9.0,69,0.00,RMK !SN!,RMK !SN!,0.00,WUHU216DAVISVP2,2013-01-03 17:52:00,
2013-01-03 12:57:00,26.6,18.2,30.18,NNE,26,4.0,10.0,70,0.00,RMK !SN!,RMK !SN!,0.00,WUHU216DAVISVP2,2013-01-03 17:57:00,
2013-01-03 13:02:00,26.6,17.9,30.17,NE,51,3.0,13.0,69,0.00,RMK !SN!,RMK !SN!,0.00,WUHU216DAVISVP2,2013-01-03 18:02:00,
2013-01-03 13:07:00,26.7,18.2,30.18,East,89,3.0,13.0,70,0.00,RMK !SN!,RMK !SN!,0.00,WUHU216DAVISVP2,2013-01-03 18:07:00,
2013-01-03 13:12:00,26.8,18.3,30.18,East,95,5.0,12.0,70,0.00,RMK !SN!,RMK !SN!,0.00,WUHU216DAVISVP2,2013-01-03 18:12:00,
2013-01-03 13:17:00,26.9,18.8,30.18,ESE,107,1.0,12.0,71,0.00,RMK !SN!,RMK !SN!,0.00,WUHU216DAVISVP2,2013-01-03 18:17:00,
2013-01-03 13:22:00,26.9,18.7,30.18,ENE,63,1.0,10.0,71,0.00,RMK !SN!,RMK !SN!,0.00,WUHU216DAVISVP2,2013-01-03 18:22:00,
2013-01-03 13:27:00,27.0,19.2,30.18,East,96,4.0,12.0,72,0.00,RMK !SN!,RMK !SN!,0.00,WUHU216DAVISVP2,2013-01-03 18:27:00,
2013-01-03 13:32:00,27.2,19.4,30.17,ESE,103,1.0,12.0,72,0.00,RMK !SN!,RMK !SN!,0.00,WUHU216DAVISVP2,2013-01-03 18:32:00,
2013-01-03 13:37:00,27.4,19.6,30.17,ESE,118,3.0,12.0,72,0.00,RMK !SN!,RMK !SN!,0.00,WUHU216DAVISVP2,2013-01-03 18:37:00,
2013-01-03 13:42:00,27.6,20.1,30.18,ENE,77,3.0,12.0,73,0.00,RMK !SN!,RMK !SN!,0.00,WUHU216DAVISVP2,2013-01-03 18:42:00,
2013-01-03 13:47:00,27.6,20.1,30.17,NE,49,2.0,17.0,73,0.00,RMK !SN!,RMK !SN!,0.00,WUHU216DAVISVP2,2013-01-03 18:47:00,
2013-01-03 13:52:00,27.6,20.1,30.17,East,80,4.0,17.0,73,0.00,RMK !SN!,RMK !SN!,0.00,WUHU216DAVISVP2,2013-01-03 18:52:00,
2013-01-03 13:57:00,27.5,20.0,30.17,ENE,64,5.0,16.0,73,0.00,RMK !SN!,RMK !SN!,0.00,WUHU216DAVISVP2,2013-01-03 18:57:00,
2013-01-03 14:02:00,27.5,20.3,30.17,ENE,71,2.0,16.0,74,0.00,RMK !SN!,RMK !SN!,0.00,WUHU216DAVISVP2,2013-01-03 19:02:00,
2013-01-03 14:07:00,27.5,20.7,30.17,East,81,1.0,8.0,75,0.00,RMK !SN!,RMK !SN!,0.00,WUHU216DAVISVP2,2013-01-03 19:07:00,
2013-01-03 14:12:00,27.6,20.7,30.17,NE,40,4.0,8.0,75,0.00,RMK !SN!,RMK !SN!,0.00,WUHU216DAVISVP2,2013-01-03 19:12:00,
2013-01-03 14:17:00,27.7,20.8,30.17,NE,41,4.0,8.0,75,0.00,RMK !SN!,RMK !SN!,0.00,WUHU216DAVISVP2,2013-01-03 19:17:00,
2013-01-03 15:00:00,26.9,21.0,30.18,ENE,68,4.0,14.0,78,0.00,RMK !SN!,RMK !SN!,0.00,WUHU216DAVISVP2,2013-01-03 20:00:00,
2013-01-03 15:38:00,26.6,21.0,30.19,East,83,1.0,8.0,79,0.00,RMK !SN!,RMK !SN!,0.00,WUHU216DAVISVP2,2013-01-03 20:38:00,
2013-01-03 15:43:00,26.6,21.3,30.19,ENE,63,4.0,8.0,80,0.00,RMK !SN!,RMK !SN!,0.00,WUHU216DAVISVP2,2013-01-03 20:43:00,
2013-01-03 15:48:00,26.6,21.3,30.19,East,90,4.0,8.0,80,0.00,RMK !SN!,RMK !SN!,0.00,WUHU216DAVISVP2,2013-01-03 20:48:00,
2013-01-03 15:53:00,26.6,21.3,30.19,ENE,68,7.0,8.0,80,0.00,RMK !SN!,RMK !SN!,0.00,WUHU216DAVISVP2,2013-01-03 20:53:00,
2013-01-03 15:58:00,26.5,21.2,30.20,NE,37,5.0,9.0,80,0.00,RMK !SN!,RMK !SN!,0.00,WUHU216DAVISVP2,2013-01-03 20:58:00,
2013-01-03 16:03:00,26.6,21.3,30.20,East,90,2.0,9.0,80,0.00,RMK !SN!,RMK !SN!,0.00,WUHU216DAVISVP2,2013-01-03 21:03:00,
2013-01-03 16:08:00,26.5,21.5,30.20,ENE,66,9.0,10.0,81,0.00,RMK !SN!,RMK !SN!,0.00,WUHU216DAVISVP2,2013-01-03 21:08:00,
2013-01-03 16:13:00,26.5,21.5,30.20,SW,214,2.0,10.0,81,0.00,RMK !SN!,RMK !SN!,0.00,WUHU216DAVISVP2,2013-01-03 21:13:00,
2013-01-03 16:18:00,26.5,21.5,30.20,SE,141,6.0,10.0,81,0.00,RMK !SN!,RMK !SN!,0.00,WUHU216DAVISVP2,2013-01-03 21:18:00,
2013-01-03 16:23:00,26.4,21.4,30.20,East,89,2.0,13.0,81,0.00,RMK !SN!,RMK !SN!,0.00,WUHU216DAVISVP2,2013-01-03 21:23:00,
2013-01-03 16:28:00,26.4,21.4,30.20,ENE,67,5.0,13.0,81,0.00,RMK !SN!,RMK !SN!,0.00,WUHU216DAVISVP2,2013-01-03 21:28:00,
2013-01-03 16:33:00,26.4,21.4,30.21,ENE,72,4.0,12.0,81,0.00,RMK !SN!,RMK !SN!,0.00,WUHU216DAVISVP2,2013-01-03 21:33:00,
2013-01-03 16:38:00,26.4,21.6,30.21,NE,39,3.0,15.0,82,0.00,RMK !SN!,RMK !SN!,0.00,WUHU216DAVISVP2,2013-01-03 21:38:00,
2013-01-03 16:43:00,26.3,21.5,30.21,WNW,300,3.0,15.0,82,0.00,RMK !SN!,RMK !SN!,0.00,WUHU216DAVISVP2,2013-01-03 21:43:00,
2013-01-03 16:48:00,26.3,21.5,30.21,ESE,104,1.0,13.0,82,0.00,RMK !SN!,RMK !SN!,0.00,WUHU216DAVISVP2,2013-01-03 21:48:00,
2013-01-03 16:53:00,26.3,21.8,30.22,East,94,1.0,13.0,83,0.00,RMK !SN!,RMK !SN!,0.00,WUHU216DAVISVP2,2013-01-03 21:53:00,
2013-01-03 16:58:00,26.3,21.8,30.22,NE,39,2.0,11.0,83,0.00,RMK !SN!,RMK !SN!,0.00,WUHU216DAVISVP2,2013-01-03 21:58:00,
2013-01-03 17:03:00,26.3,21.8,30.22,East,81,3.0,11.0,83,0.00,RMK !SN!,RMK !SN!,0.00,WUHU216DAVISVP2,2013-01-03 22:03:00,
2013-01-03 17:08:00,26.3,21.8,30.22,SE,129,3.0,10.0,83,0.00,RMK !SN!,RMK !SN!,0.00,WUHU216DAVISVP2,2013-01-03 22:08:00,
2013-01-03 17:13:00,26.3,21.8,30.22,West,260,1.0,10.0,83,0.00,RMK !SN!,RMK !SN!,0.00,WUHU216DAVISVP2,2013-01-03 22:13:00,
2013-01-03 17:18:00,26.3,21.8,30.22,ESE,108,1.0,8.0,83,0.00,RMK !SN!,RMK !SN!,0.00,WUHU216DAVISVP2,2013-01-03 22:18:00,
2013-01-03 17:23:00,26.3,22.1,30.22,ENE,74,1.0,7.0,84,0.00,RMK !SN!,RMK !SN!,0.00,WUHU216DAVISVP2,2013-01-03 22:23:00,
2013-01-03 17:28:00,26.3,22.1,30.22,East,82,5.0,7.0,84,0.00,RMK !SN!,RMK !SN!,0.00,WUHU216DAVISVP2,2013-01-03 22:28:00,
2013-01-03 17:33:00,26.3,22.1,30.22,NNE,15,3.0,10.0,84,0.00,RMK !SN!,RMK !SN!,0.00,WUHU216DAVISVP2,2013-01-03 22:33:00,
2013-01-03 17:38:00,26.3,22.1,30.22,NNE,32,3.0,10.0,84,0.00,RMK !SN!,RMK !SN!,0.00,WUHU216DAVISVP2,2013-01-03 22:38:00,
2013-01-03 17:43:00,26.2,22.0,30.22,East,97,3.0,9.0,84,0.00,RMK !SN!,RMK !SN!,0.00,WUHU216DAVISVP2,2013-01-03 22:43:00,
2013-01-03 17:48:00,26.3,22.1,30.23,SE,134,3.0,12.0,84,0.00,RMK !SN!,RMK !SN!,0.00,WUHU216DAVISVP2,2013-01-03 22:48:00,
2013-01-03 17:53:00,26.2,22.0,30.23,ENE,63,2.0,12.0,84,0.00,RMK !SN!,RMK !SN!,0.00,WUHU216DAVISVP2,2013-01-03 22:53:00,
2013-01-03 17:59:00,26.2,22.0,30.23,ENE,68,2.0,11.0,84,0.00,RMK !SN!,RMK !SN!,0.00,WUHU216DAVISVP2,2013-01-03 22:59:00,
2013-01-03 18:04:00,26.2,22.3,30.23,NE,47,2.0,10.0,85,0.00,RMK !SN!,RMK !SN!,0.00,WUHU216DAVISVP2,2013-01-03 23:04:00,
2013-01-03 18:09:00,26.2,22.0,30.23,ENE,58,5.0,9.0,84,0.00,RMK !SN!,RMK !SN!,0.00,WUHU216DAVISVP2,2013-01-03 23:09:00,
2013-01-03 18:14:00,26.2,22.3,30.23,SSE,167,1.0,8.0,85,0.00,RMK !SN!,RMK !SN!,0.00,WUHU216DAVISVP2,2013-01-03 23:14:00,
2013-01-03 18:19:00,26.2,22.0,30.24,NE,51,5.0,9.0,84,0.00,RMK !SN!,RMK !SN!,0.00,WUHU216DAVISVP2,2013-01-03 23:19:00,
2013-01-03 18:24:00,26.2,22.0,30.24,East,96,7.0,11.0,84,0.00,RMK !SN!,RMK !SN!,0.00,WUHU216DAVISVP2,2013-01-03 23:24:00,
2013-01-03 18:29:00,26.2,22.0,30.24,NE,50,7.0,11.0,84,0.00,RMK !SN!,RMK !SN!,0.00,WUHU216DAVISVP2,2013-01-03 23:29:00,
2013-01-03 18:34:00,26.2,22.0,30.24,ESE,113,2.0,13.0,84,0.00,RMK !SN!,RMK !SN!,0.00,WUHU216DAVISVP2,2013-01-03 23:34:00,
2013-01-03 18:39:00,26.1,21.9,30.24,East,81,2.0,13.0,84,0.00,RMK !SN!,RMK !SN!,0.00,WUHU216DAVISVP2,2013-01-03 23:39:00,
2013-01-03 18:43:00,26.1,21.9,30.24,ENE,65,5.0,12.0,84,0.00,RMK !SN!,RMK !SN!,0.00,WUHU216DAVISVP2,2013-01-03 23:43:00,
2013-01-03 18:48:00,26.1,21.9,30.24,East,97,2.0,8.0,84,0.00,RMK !SN!,RMK !SN!,0.00,WUHU216DAVISVP2,2013-01-03 23:48:00,
2013-01-03 18:53:00,26.0,21.8,30.24,ENE,64,4.0,9.0,84,0.00,RMK !SN!,RMK !SN!,0.00,WUHU216DAVISVP2,2013-01-03 23:53:00,
2013-01-03 18:58:00,26.0,21.8,30.24,ENE,74,8.0,9.0,84,0.00,RMK !SN!,RMK !SN!,0.00,WUHU216DAVISVP2,2013-01-03 23:58:00,
2013-01-03 19:04:00,26.0,21.8,30.24,East,84,3.0,9.0,84,0.00,RMK !SN!,RMK !SN!,0.00,WUHU216DAVISVP2,2013-01-04 00:04:00,
2013-01-03 19:09:00,26.0,21.8,30.24,ENE,62,6.0,9.0,84,0.00,RMK !SN!,RMK !SN!,0.00,WUHU216DAVISVP2,2013-01-04 00:09:00,
2013-01-03 19:14:00,26.0,21.8,30.24,ENE,65,5.0,11.0,84,0.00,RMK !SN!,RMK !SN!,0.00,WUHU216DAVISVP2,2013-01-04 00:14:00,
2013-01-03 19:19:00,25.9,21.7,30.25,NE,50,5.0,15.0,84,0.00,RMK !SN!,RMK !SN!,0.00,WUHU216DAVISVP2,2013-01-04 00:19:00,
2013-01-03 19:24:00,25.9,21.7,30.25,East,98,2.0,15.0,84,0.00,RMK !SN!,RMK !SN!,0.00,WUHU216DAVISVP2,2013-01-04 00:24:00,
2013-01-03 19:29:00,25.9,21.7,30.25,NE,41,3.0,14.0,84,0.00,RMK !SN!,RMK !SN!,0.00,WUHU216DAVISVP2,2013-01-04 00:29:00,
2013-01-03 19:34:00,25.9,21.7,30.25,East,96,3.0,14.0,84,0.00,RMK !SN!,RMK !SN!,0.00,WUHU216DAVISVP2,2013-01-04 00:34:00,
2013-01-03 19:39:00,25.9,22.0,30.25,East,82,0.0,13.0,85,0.00,RMK !SN!,RMK !SN!,0.00,WUHU216DAVISVP2,2013-01-04 00:39:00,
2013-01-03 19:44:00,25.9,22.0,30.25,ESE,108,3.0,13.0,85,0.00,RMK !SN!,RMK !SN!,0.00,WUHU216DAVISVP2,2013-01-04 00:44:00,
2013-01-03 19:49:00,25.9,22.0,30.25,East,89,2.0,11.0,85,0.00,RMK !SN!,RMK !SN!,0.00,WUHU216DAVISVP2,2013-01-04 00:49:00,
2013-01-03 19:54:00,25.9,22.0,30.25,ENE,70,6.0,11.0,85,0.00,RMK !SN!,RMK !SN!,0.00,WUHU216DAVISVP2,2013-01-04 00:54:00,
2013-01-03 19:59:00,25.8,21.9,30.25,South,177,1.0,10.0,85,0.00,RMK !SN!,RMK !SN!,0.00,WUHU216DAVISVP2,2013-01-04 00:59:00,
2013-01-03 20:04:00,25.8,21.9,30.25,West,260,1.0,10.0,85,0.00,RMK !SN!,RMK !SN!,0.00,WUHU216DAVISVP2,2013-01-04 01:04:00,
2013-01-03 20:09:00,25.9,22.0,30.25,East,97,4.0,9.0,85,0.00,RMK !SN!,RMK !SN!,0.00,WUHU216DAVISVP2,2013-01-04 01:09:00,
2013-01-03 20:14:00,25.8,21.9,30.25,ESE,102,1.0,9.0,85,0.00,RMK !SN!,RMK !SN!,0.00,WUHU216DAVISVP2,2013-01-04 01:14:00,
2013-01-03 20:19:00,25.8,22.2,30.25,ENE,60,2.0,9.0,86,0.00,RMK !SN!,RMK !SN!,0.00,WUHU216DAVISVP2,2013-01-04 01:19:00,
2013-01-03 20:24:00,25.8,22.2,30.25,NNE,16,4.0,11.0,86,0.00,RMK !SN!,RMK !SN!,0.00,WUHU216DAVISVP2,2013-01-04 01:24:00,
2013-01-03 20:29:00,25.8,22.2,30.25,NE,39,4.0,11.0,86,0.00,RMK !SN!,RMK !SN!,0.00,WUHU216DAVISVP2,2013-01-04 01:29:00,
2013-01-03 20:34:00,25.8,22.2,30.25,East,99,3.0,10.0,86,0.00,RMK !SN!,RMK !SN!,0.00,WUHU216DAVISVP2,2013-01-04 01:34:00,
2013-01-03 20:39:00,25.8,22.2,30.25,ENE,70,6.0,10.0,86,0.00,RMK !SN!,RMK !SN!,0.00,WUHU216DAVISVP2,2013-01-04 01:39:00,
2013-01-03 20:44:00,25.8,22.2,30.25,East,96,0.0,8.0,86,0.00,RMK !SN!,RMK !SN!,0.00,WUHU216DAVISVP2,2013-01-04 01:44:00,
2013-01-03 20:49:00,25.8,22.2,30.25,ESE,108,2.0,8.0,86,0.00,RMK !SN!,RMK !SN!,0.00,WUHU216DAVISVP2,2013-01-04 01:49:00,
2013-01-03 20:54:00,25.8,22.2,30.25,ENE,70,4.0,7.0,86,0.00,RMK !SN!,RMK !SN!,0.00,WUHU216DAVISVP2,2013-01-04 01:54:00,
2013-01-03 20:59:00,25.8,22.2,30.25,East,83,2.0,8.0,86,0.00,RMK !SN!,RMK !SN!,0.00,WUHU216DAVISVP2,2013-01-04 01:59:00,
2013-01-03 21:04:00,25.8,22.2,30.25,East,95,2.0,10.0,86,0.00,RMK !SN!,RMK !SN!,0.00,WUHU216DAVISVP2,2013-01-04 02:04:00,
2013-01-03 21:09:00,25.8,22.4,30.25,ESE,110,3.0,11.0,87,0.00,RMK !SN!,RMK !SN!,0.00,WUHU216DAVISVP2,2013-01-04 02:09:00,
2013-01-03 21:14:00,25.8,22.4,30.25,ENE,72,3.0,11.0,87,0.00,RMK !SN!,RMK !SN!,0.00,WUHU216DAVISVP2,2013-01-04 02:14:00,
2013-01-03 21:19:00,25.8,22.4,30.25,East,101,2.0,11.0,87,0.00,RMK !SN!,RMK !SN!,0.00,WUHU216DAVISVP2,2013-01-04 02:19:00,
2013-01-03 21:24:00,25.9,22.5,30.25,ENE,70,5.0,11.0,87,0.00,RMK !SN!,RMK !SN!,0.00,WUHU216DAVISVP2,2013-01-04 02:24:00,
2013-01-03 21:29:00,25.9,22.5,30.25,East,101,2.0,10.0,87,0.00,RMK !SN!,RMK !SN!,0.00,WUHU216DAVISVP2,2013-01-04 02:29:00,
2013-01-03 21:34:00,25.9,22.5,30.25,East,86,1.0,10.0,87,0.00,RMK !SN!,RMK !SN!,0.00,WUHU216DAVISVP2,2013-01-04 02:34:00,
2013-01-03 21:39:00,25.9,22.5,30.25,ENE,77,2.0,9.0,87,0.00,RMK !SN!,RMK !SN!,0.00,WUHU216DAVISVP2,2013-01-04 02:39:00,
2013-01-03 21:44:00,26.0,22.6,30.25,NNE,32,2.0,8.0,87,0.00,RMK !SN!,RMK !SN!,0.00,WUHU216DAVISVP2,2013-01-04 02:44:00,
2013-01-03 21:49:00,26.0,22.6,30.26,SE,146,2.0,8.0,87,0.00,RMK !SN!,RMK !SN!,0.00,WUHU216DAVISVP2,2013-01-04 02:49:00,
2013-01-03 21:54:00,26.1,22.7,30.26,ENE,70,3.0,7.0,87,0.00,RMK !SN!,RMK !SN!,0.00,WUHU216DAVISVP2,2013-01-04 02:54:00,
2013-01-03 21:59:00,26.1,22.7,30.26,ENE,59,3.0,8.0,87,0.00,RMK !SN!,RMK !SN!,0.00,WUHU216DAVISVP2,2013-01-04 02:59:00,
2013-01-03 22:04:00,26.1,22.7,30.25,SSE,163,3.0,9.0,87,0.00,RMK !SN!,RMK !SN!,0.00,WUHU216DAVISVP2,2013-01-04 03:04:00,
2013-01-03 22:09:00,26.1,22.7,30.25,East,89,2.0,10.0,87,0.00,RMK !SN!,RMK !SN!,0.00,WUHU216DAVISVP2,2013-01-04 03:09:00,
2013-01-03 22:14:00,26.1,22.7,30.25,East,89,1.0,10.0,87,0.00,RMK !SN!,RMK !SN!,0.00,WUHU216DAVISVP2,2013-01-04 03:14:00,
2013-01-03 22:19:00,26.1,22.7,30.25,ENE,70,2.0,9.0,87,0.00,RMK !SN!,RMK !SN!,0.00,WUHU216DAVISVP2,2013-01-04 03:19:00,
2013-01-03 22:24:00,26.1,22.7,30.26,East,88,2.0,9.0,87,0.00,RMK !SN!,RMK !SN!,0.00,WUHU216DAVISVP2,2013-01-04 03:24:00,
2013-01-03 22:29:00,26.1,22.8,30.26,NNE,27,4.0,9.0,87,0.00,RMK !SN!,RMK !SN!,0.00,WUHU216DAVISVP2,2013-01-04 03:29:00,
2013-01-03 22:34:00,26.1,22.8,30.26,ENE,70,2.0,9.0,87,0.00,RMK !SN!,RMK !SN!,0.00,WUHU216DAVISVP2,2013-01-04 03:34:00,
2013-01-03 22:39:00,26.1,22.8,30.26,SE,144,0.0,8.0,87,0.00,RMK !SN!,RMK !SN!,0.00,WUHU216DAVISVP2,2013-01-04 03:39:00,
2013-01-03 22:44:00,26.1,22.8,30.25,East,81,2.0,8.0,87,0.00,RMK !SN!,RMK !SN!,0.00,WUHU216DAVISVP2,2013-01-04 03:44:00,
2013-01-03 22:49:00,26.1,22.8,30.26,ENE,66,6.0,8.0,87,0.00,RMK !SN!,RMK !SN!,0.00,WUHU216DAVISVP2,2013-01-04 03:49:00,
2013-01-03 22:54:00,26.1,22.7,30.26,ESE,103,1.0,7.0,87,0.00,RMK !SN!,RMK !SN!,0.00,WUHU216DAVISVP2,2013-01-04 03:54:00,
2013-01-03 22:59:00,26.1,22.7,30.26,SE,140,1.0,7.0,87,0.00,RMK !SN!,RMK !SN!,0.00,WUHU216DAVISVP2,2013-01-04 03:59:00,
2013-01-03 23:04:00,26.1,23.0,30.25,East,84,1.0,6.0,88,0.00,RMK !SN!,RMK !SN!,0.00,WUHU216DAVISVP2,2013-01-04 04:04:00,
2013-01-03 23:09:00,26.1,23.0,30.25,East,88,2.0,6.0,88,0.00,RMK !SN!,RMK !SN!,0.00,WUHU216DAVISVP2,2013-01-04 04:09:00,
2013-01-03 23:14:00,26.1,23.0,30.25,SE,124,0.0,7.0,88,0.00,RMK !SN!,RMK !SN!,0.00,WUHU216DAVISVP2,2013-01-04 04:14:00,
2013-01-03 23:19:00,26.1,23.0,30.25,East,80,6.0,7.0,88,0.00,RMK !SN!,RMK !SN!,0.00,WUHU216DAVISVP2,2013-01-04 04:19:00,
2013-01-03 23:24:00,26.1,22.7,30.25,ENE,74,1.0,8.0,87,0.00,RMK !SN!,RMK !SN!,0.00,WUHU216DAVISVP2,2013-01-04 04:24:00,
2013-01-03 23:29:00,26.1,23.0,30.25,ENE,57,3.0,8.0,88,0.00,RMK !SN!,RMK !SN!,0.00,WUHU216DAVISVP2,2013-01-04 04:29:00,
2013-01-03 23:34:00,26.1,23.0,30.25,South,175,2.0,7.0,88,0.00,RMK !SN!,RMK !SN!,0.00,WUHU216DAVISVP2,2013-01-04 04:34:00,
2013-01-03 23:39:00,26.1,23.0,30.25,ENE,67,0.0,6.0,88,0.00,RMK !SN!,RMK !SN!,0.00,WUHU216DAVISVP2,2013-01-04 04:39:00,
2013-01-03 23:44:00,26.1,23.0,30.25,ENE,70,2.0,6.0,88,0.00,RMK !SN!,RMK !SN!,0.00,WUHU216DAVISVP2,2013-01-04 04:44:00,
2013-01-03 23:49:00,26.1,23.0,30.25,East,98,0.0,8.0,88,0.00,RMK !SN!,RMK !SN!,0.00,WUHU216DAVISVP2,2013-01-04 04:49:00,
2013-01-03 23:54:00,26.1,22.7,30.25,ENE,65,4.0,8.0,87,0.00,RMK !SN!,RMK !SN!,0.00,WUHU216DAVISVP2,2013-01-04 04:54:00,
2013-01-03 23:59:00,26.1,22.7,30.25,East,94,4.0,8.0,87,0.00,RMK !SN!,RMK !SN!,0.00,WUHU216DAVISVP2,2013-01-04 04:59:00,